Flight Track Log - Related Links

Times and Time Zones

All times are in EST time to prevent confusion due to time zone crossing. See the PGA1096 flight status page for this flight to view local times or setup timezone preferences in your user account.

Time Position Orientation Groundspeed Altitude Reporting Facility
EST Latitude Longitude Course Direction KTS MPH feet Rate Location/Type
Mon 03:58:49 AM 38.8477 -8.5705 82° East  Level Estimated
Mon 03:59:49 AM 38.8611 -8.4530 82° East  Level Estimated
Mon 04:00:49 AM 38.8744 -8.3355 82° East  Level Estimated
Mon 04:01:49 AM 38.8876 -8.2179 82° East  Level Estimated
Mon 04:02:49 AM 38.9007 -8.1003 82° East  Level Estimated
Mon 04:03:49 AM 38.9137 -7.9826 82° East  Level Estimated
Mon 04:04:49 AM 38.9265 -7.8649 82° East  Level Estimated
Mon 04:05:49 AM 38.9392 -7.7471 82° East  Level Estimated
Mon 04:06:49 AM 38.9518 -7.6293 82° East  Level Estimated
Mon 04:07:49 AM 38.9643 -7.5114 82° East  Level Estimated
Mon 04:08:49 AM 38.9767 -7.3935 82° East  Level Estimated
Mon 04:09:49 AM 38.9890 -7.2756 82° East  Level Estimated
Mon 04:10:49 AM 39.0011 -7.1576 82° East  Level Estimated
Mon 04:11:49 AM 39.0131 -7.0396 83° East  Level Estimated
Mon 04:12:49 AM 39.0250 -6.9215 83° East  Level Estimated
Mon 04:13:49 AM 39.0368 -6.8035 83° East  Level Estimated
Mon 04:14:49 AM 39.0484 -6.6853 83° East  Level Estimated
Mon 04:15:49 AM 39.0600 -6.5672 83° East  Level Estimated
Mon 04:16:49 AM 39.0714 -6.4489 83° East  Level Estimated
Mon 04:17:49 AM 39.0827 -6.3307 83° East  Level Estimated
Mon 04:18:49 AM 39.0939 -6.2124 83° East  Level Estimated
Mon 04:19:49 AM 39.1049 -6.0941 83° East  Level Estimated
Mon 04:20:49 AM 39.1159 -5.9757 83° East  Level Estimated
Mon 04:21:49 AM 39.1267 -5.8573 83° East  Level Estimated
Mon 04:22:49 AM 39.1374 -5.7389 83° East  Level Estimated
Mon 04:23:49 AM 39.1480 -5.6204 83° East  Level Estimated
Mon 04:24:49 AM 39.1585 -5.5019 84° East  Level Estimated
Mon 04:25:49 AM 39.1688 -5.3834 84° East  Level Estimated
Mon 04:26:49 AM 39.1790 -5.2648 84° East  Level Estimated
Mon 04:27:49 AM 39.1891 -5.1462 84° East  Level Estimated
Mon 04:28:49 AM 39.1991 -5.0275 84° East  Level Estimated
Mon 04:29:49 AM 39.2090 -4.9089 84° East  Level Estimated
Mon 04:30:49 AM 39.2187 -4.7902 84° East  Level Estimated
Mon 04:31:49 AM 39.2283 -4.6714 84° East  Level Estimated
Mon 04:32:49 AM 39.2378 -4.5526 84° East  Level Estimated
Mon 04:33:49 AM 39.2472 -4.4338 84° East  Level Estimated
Mon 04:34:49 AM 39.2565 -4.3150 84° East  Level Estimated
Mon 04:35:49 AM 39.2656 -4.1961 84° East  Level Estimated
Mon 04:36:49 AM 39.2746 -4.0772 84° East  Level Estimated
Mon 04:37:49 AM 39.2835 -3.9583 85° East  Level Estimated
Mon 04:38:49 AM 39.2923 -3.8393 85° East  Level Estimated
Mon 04:39:49 AM 39.3009 -3.7203 85° East  Level Estimated
Mon 04:40:49 AM 39.3095 -3.6013 85° East  Level Estimated
Mon 04:41:49 AM 39.3179 -3.4823 85° East  Level Estimated
Mon 04:42:49 AM 39.3262 -3.3632 85° East  Level Estimated
Mon 04:43:49 AM 39.3343 -3.2441 85° East  Level Estimated
Mon 04:44:49 AM 39.3424 -3.1250 85° East  Level Estimated
Mon 04:45:49 AM 39.3503 -3.0058 85° East  Level Estimated
Mon 04:46:49 AM 39.3581 -2.8866 85° East  Level Estimated
Mon 04:47:49 AM 39.3658 -2.7674 85° East  Level Estimated
Mon 04:48:49 AM 39.3734 -2.6482 85° East  Level Estimated
Mon 04:49:49 AM 39.3808 -2.5289 85° East  Level Estimated
Mon 04:50:49 AM 39.3881 -2.4096 85° East  Level Estimated
Mon 04:51:49 AM 39.3953 -2.2903 86° East  Level Estimated
Mon 04:52:49 AM 39.4024 -2.1710 86° East  Level Estimated
Mon 04:53:49 AM 39.4093 -2.0516 86° East  Level Estimated
Mon 04:54:49 AM 39.4162 -1.9322 86° East  Level Estimated
Mon 04:55:49 AM 39.4229 -1.8128 86° East  Level Estimated
Mon 04:56:49 AM 39.4295 -1.6934 86° East  Level Estimated
Mon 04:57:49 AM 39.4359 -1.5739 86° East  Level Estimated
Mon 04:58:49 AM 39.4423 -1.4544 86° East  Level Estimated
Mon 04:59:49 AM 39.4485 -1.3349 86° East  Level Estimated
Mon 05:00:49 AM 39.4546 -1.2154 86° East  Level Estimated
Mon 05:01:49 AM 39.4605 -1.0959 86° East  Level Estimated
Mon 05:02:49 AM 39.4664 -0.9763 86° East  Level Estimated
Mon 05:03:49 AM 39.4721 -0.8567 86° East  Level Estimated
Mon 05:04:49 AM 39.4777 -0.7371 87° East  Level Estimated
Mon 05:05:49 AM 39.4832 -0.6175 87° East  Level Estimated
Mon 05:06:49 AM 39.4886 -0.4979 87° East  Level Estimated
Mon 05:07:49 AM 39.4938 -0.3782 87° East  Level Estimated

Login

Don't have an account? Register now (free) for customized features, flight alerts, and more!